Aviation Digital Data Service (ADDS)

Output produced by METARs form (0301 UTC 18 August 2017)
found at http://www.aviationweather.gov/adds/metars/
 
LATI 180250Z 00000KT CAVOK 19/14 Q1014 NOSIG
TAF LATI 172300Z 1800/1824 VRB03KT CAVOK TX36/1812Z TN19/1803Z 
     TEMPO 1809/1817 34012KT
       
LATI 180250Z 00000KT CAVOK 19/14 Q1014 NOSIG
TAF LATI 172300Z 1800/1824 VRB03KT CAVOK TX36/1812Z TN19/1803Z 
     TEMPO 1809/1817 34012KT